createdAt,value
2018-05-08T00:02:14.105Z,2.73
2018-05-08T00:04:41.668Z,2.90
2018-05-08T00:07:09.212Z,3.30
2018-05-08T00:09:36.775Z,2.80
2018-05-08T00:12:05.256Z,2.83
2018-05-08T00:14:32.828Z,3.07
2018-05-08T00:17:00.399Z,2.80
2018-05-08T00:19:27.972Z,3.37
2018-05-08T00:21:55.551Z,3.00
2018-05-08T00:24:23.872Z,3.00
2018-05-08T00:26:51.433Z,2.83
2018-05-08T00:29:19.079Z,3.13
2018-05-08T00:31:46.721Z,3.07
2018-05-08T00:34:15.236Z,3.20
2018-05-08T00:36:42.795Z,3.20
2018-05-08T00:39:10.394Z,3.90
2018-05-08T00:41:37.951Z,2.97
2018-05-08T00:44:05.524Z,3.20
2018-05-08T00:46:33.087Z,3.00
2018-05-08T00:49:00.696Z,3.17
2018-05-08T00:51:28.260Z,3.20
2018-05-08T00:53:55.839Z,3.43
2018-05-08T00:56:23.376Z,2.90
2018-05-08T00:58:50.934Z,3.43
2018-05-08T01:01:18.489Z,3.63
2018-05-08T01:03:46.047Z,3.30
2018-05-08T01:06:13.610Z,3.20
2018-05-08T01:08:41.164Z,2.87
2018-05-08T01:11:08.723Z,3.27
2018-05-08T01:13:36.286Z,3.33
2018-05-08T01:16:03.828Z,3.10
2018-05-08T01:18:32.177Z,3.67
2018-05-08T01:20:59.731Z,3.10
2018-05-08T01:23:27.313Z,3.80
2018-05-08T01:25:55.623Z,3.57
2018-05-08T01:28:23.461Z,3.40
2018-05-08T01:30:51.002Z,3.30
2018-05-08T01:33:18.566Z,3.70
2018-05-08T01:35:46.263Z,3.77
2018-05-08T01:38:13.807Z,3.60
2018-05-08T01:40:42.127Z,3.43
2018-05-08T01:43:09.678Z,3.53
2018-05-08T01:45:37.423Z,3.50
2018-05-08T01:48:04.996Z,3.60
2018-05-08T01:50:32.651Z,3.93
2018-05-08T01:53:00.246Z,3.37
2018-05-08T01:55:27.808Z,3.47
2018-05-08T01:57:55.347Z,3.33
2018-05-08T02:00:22.915Z,3.27
2018-05-08T02:02:50.464Z,3.63
2018-05-08T02:05:18.015Z,3.30
2018-05-08T02:07:45.582Z,3.60
2018-05-08T02:10:13.132Z,3.40
2018-05-08T02:12:40.707Z,3.90
2018-05-08T02:15:08.267Z,3.67
2018-05-08T02:17:35.814Z,4.37
2018-05-08T02:20:03.367Z,3.90
2018-05-08T02:22:30.956Z,3.33
2018-05-08T02:24:58.513Z,3.60
2018-05-08T02:27:26.080Z,3.90
2018-05-08T02:29:53.643Z,3.80
2018-05-08T02:32:21.224Z,3.83
2018-05-08T02:34:48.761Z,3.80
2018-05-08T02:37:16.329Z,3.70
2018-05-08T02:39:43.997Z,4.00
2018-05-08T02:42:11.582Z,3.53
2018-05-08T02:44:39.142Z,3.90
2018-05-08T02:47:06.704Z,3.70
2018-05-08T02:49:34.257Z,3.77
2018-05-08T02:52:01.932Z,4.17
2018-05-08T02:54:30.245Z,4.63
2018-05-08T02:56:57.988Z,4.33
2018-05-08T02:59:26.332Z,13.23
2018-05-08T03:01:53.883Z,6.70
2018-05-08T03:04:21.609Z,5.40
2018-05-08T03:06:49.184Z,5.17
2018-05-08T03:09:16.750Z,4.60
2018-05-08T03:11:44.336Z,7.77
2018-05-08T03:14:12.040Z,6.00
2018-05-08T03:16:39.598Z,5.37
2018-05-08T03:19:07.156Z,5.33
2018-05-08T03:21:34.752Z,5.17
2018-05-08T03:24:02.324Z,5.47
2018-05-08T03:26:29.903Z,4.70
2018-05-08T03:28:57.457Z,4.90
2018-05-08T03:31:25.024Z,4.57
2018-05-08T03:33:52.637Z,4.60
2018-05-08T03:36:20.214Z,4.83
2018-05-08T03:38:47.776Z,4.20
2018-05-08T03:41:15.352Z,4.60
2018-05-08T03:43:42.918Z,4.53
2018-05-08T03:46:10.501Z,5.20
2018-05-08T03:48:38.835Z,4.20
2018-05-08T03:51:06.428Z,4.80
2018-05-08T03:53:33.976Z,5.47
2018-05-08T03:56:01.554Z,5.60
2018-05-08T03:58:29.105Z,4.93
2018-05-08T04:01:08.665Z,5.13
2018-05-08T04:03:49.001Z,5.30
2018-05-08T04:06:28.227Z,5.20
2018-05-08T04:08:55.850Z,4.93
2018-05-08T04:11:23.424Z,5.40
2018-05-08T04:13:50.989Z,5.23
2018-05-08T04:16:18.553Z,4.67
2018-05-08T04:18:46.095Z,4.87
2018-05-08T04:21:13.664Z,5.57
2018-05-08T04:23:41.243Z,5.30
2018-05-08T04:26:08.830Z,5.40
2018-05-08T04:28:36.397Z,5.50
2018-05-08T04:31:04.865Z,5.80
2018-05-08T04:33:32.420Z,5.30
2018-05-08T04:35:59.987Z,5.10
2018-05-08T04:38:27.532Z,4.97
2018-05-08T04:40:55.165Z,5.27
2018-05-08T04:43:22.719Z,5.60
2018-05-08T04:45:50.297Z,5.60
2018-05-08T04:48:17.887Z,6.10
2018-05-08T04:50:45.515Z,6.07
2018-05-08T04:53:13.083Z,7.70
2018-05-08T04:55:40.635Z,6.63
2018-05-08T04:58:08.205Z,5.37
2018-05-08T05:00:35.759Z,6.30
2018-05-08T05:03:03.277Z,6.20
2018-05-08T05:05:31.587Z,5.73
2018-05-08T05:07:59.156Z,4.87
2018-05-08T05:10:26.712Z,5.40
2018-05-08T05:12:54.283Z,4.83
2018-05-08T05:15:21.840Z,5.20
2018-05-08T05:17:49.403Z,5.30
2018-05-08T05:20:16.957Z,5.10
2018-05-08T05:22:44.534Z,4.80
2018-05-08T05:25:12.093Z,5.10
2018-05-08T05:27:40.421Z,4.47
2018-05-08T05:30:07.989Z,4.40
2018-05-08T05:32:35.527Z,4.60
2018-05-08T05:35:03.868Z,4.40
2018-05-08T05:37:31.428Z,4.67
2018-05-08T05:39:58.988Z,4.13
2018-05-08T05:42:26.710Z,4.50
2018-05-08T05:44:54.262Z,4.10
2018-05-08T05:47:21.804Z,4.10
2018-05-08T05:49:50.256Z,3.97
2018-05-08T05:52:17.827Z,3.90
2018-05-08T05:54:46.164Z,3.70
2018-05-08T05:57:13.716Z,3.80
2018-05-08T05:59:41.425Z,3.90
2018-05-08T06:02:08.981Z,3.43
2018-05-08T06:04:36.617Z,3.25
2018-05-08T06:07:04.191Z,2.87
2018-05-08T06:09:31.777Z,3.12
2018-05-08T06:12:00.200Z,2.85
2018-05-08T06:14:28.538Z,3.22
2018-05-08T06:16:56.876Z,3.17
2018-05-08T06:19:24.433Z,3.40
2018-05-08T06:21:52.003Z,3.08
2018-05-08T06:24:19.678Z,2.90
2018-05-08T06:26:47.221Z,2.97
2018-05-08T06:29:14.864Z,3.15
2018-05-08T06:31:42.440Z,2.80
2018-05-08T06:34:10.059Z,2.67
2018-05-08T06:36:37.640Z,2.78
2018-05-08T06:39:05.166Z,2.42
2018-05-08T06:41:33.492Z,2.97
2018-05-08T06:44:01.052Z,2.85
2018-05-08T06:46:28.620Z,2.67
2018-05-08T06:48:56.339Z,2.57
2018-05-08T06:51:23.904Z,2.60
2018-05-08T06:53:51.456Z,2.60
2018-05-08T06:56:19.783Z,3.03
2018-05-08T06:58:47.355Z,2.80
2018-05-08T07:01:15.080Z,2.80
2018-05-08T07:03:42.693Z,2.50
2018-05-08T07:06:10.247Z,2.47
2018-05-08T07:08:37.836Z,2.73
2018-05-08T07:11:05.397Z,2.73
2018-05-08T07:13:33.718Z,2.87
2018-05-08T07:16:01.545Z,2.40
2018-05-08T07:18:29.081Z,2.40
2018-05-08T07:20:56.616Z,2.60
2018-05-08T07:23:24.211Z,2.47
2018-05-08T07:25:52.532Z,2.73
2018-05-08T07:28:20.104Z,2.20
2018-05-08T07:30:47.657Z,2.47
2018-05-08T07:33:15.232Z,2.73
2018-05-08T07:35:42.790Z,2.30
2018-05-08T07:38:10.421Z,2.33
2018-05-08T07:40:37.984Z,2.53
2018-05-08T07:43:05.560Z,2.77
2018-05-08T07:45:33.232Z,2.40
2018-05-08T07:48:00.710Z,2.30
2018-05-08T07:50:28.260Z,2.13
2018-05-08T07:52:55.881Z,2.40
2018-05-08T07:55:23.550Z,2.30
2018-05-08T07:57:51.089Z,2.40
2018-05-08T08:00:18.662Z,2.80
2018-05-08T08:02:46.241Z,2.20
2018-05-08T08:05:13.788Z,2.13
2018-05-08T08:07:41.348Z,2.33
2018-05-08T08:10:08.887Z,2.37
2018-05-08T08:12:36.470Z,2.20
2018-05-08T08:15:04.018Z,2.40
2018-05-08T08:17:31.576Z,2.33
2018-05-08T08:19:59.137Z,2.20
2018-05-08T08:22:26.688Z,2.60
2018-05-08T08:24:54.243Z,2.20
2018-05-08T08:27:21.827Z,2.27
2018-05-08T08:29:49.428Z,2.30
2018-05-08T08:32:16.948Z,2.33
2018-05-08T08:34:44.525Z,2.40
2018-05-08T08:37:12.083Z,2.17
2018-05-08T08:39:39.723Z,2.33
2018-05-08T08:42:07.284Z,2.27
2018-05-08T08:44:34.870Z,2.10
2018-05-08T08:47:02.429Z,2.53
2018-05-08T08:49:30.020Z,2.37
2018-05-08T08:51:57.563Z,2.40
2018-05-08T08:54:25.121Z,2.23
2018-05-08T08:56:52.670Z,2.10
2018-05-08T08:59:20.254Z,2.30
2018-05-08T09:01:47.802Z,2.30
2018-05-08T09:04:15.356Z,2.27
2018-05-08T09:06:42.911Z,2.13
2018-05-08T09:09:10.485Z,2.10
2018-05-08T09:11:38.035Z,2.40
2018-05-08T09:14:05.595Z,2.30
2018-05-08T09:16:33.211Z,2.10
2018-05-08T09:19:00.760Z,2.27
2018-05-08T09:21:29.094Z,2.27
2018-05-08T09:23:56.641Z,2.13
2018-05-08T09:26:24.212Z,2.00
2018-05-08T09:28:51.752Z,2.30
2018-05-08T09:31:19.327Z,2.57
2018-05-08T09:33:46.891Z,2.30
2018-05-08T09:36:14.479Z,2.37
2018-05-08T09:38:42.031Z,2.70
2018-05-08T09:41:09.604Z,2.23
2018-05-08T09:43:37.151Z,2.23
2018-05-08T09:46:04.746Z,2.13
2018-05-08T09:48:33.080Z,1.90
2018-05-08T09:51:00.640Z,2.10
2018-05-08T09:53:28.217Z,2.50
2018-05-08T09:55:55.891Z,2.30
2018-05-08T09:58:23.455Z,2.30
2018-05-08T10:00:51.788Z,2.40
2018-05-08T10:03:19.363Z,2.50
2018-05-08T10:05:48.420Z,2.30
2018-05-08T10:08:16.015Z,2.27
2018-05-08T10:10:43.572Z,2.17
2018-05-08T10:13:11.146Z,2.10
2018-05-08T10:15:38.680Z,2.43
2018-05-08T10:18:06.225Z,2.50
2018-05-08T10:20:33.830Z,2.90
2018-05-08T10:23:01.372Z,2.77
2018-05-08T10:25:29.067Z,2.00
2018-05-08T10:27:57.392Z,2.23
2018-05-08T10:30:25.054Z,2.40
2018-05-08T10:32:52.635Z,2.23
2018-05-08T10:35:20.203Z,2.73
2018-05-08T10:37:47.822Z,2.13
2018-05-08T10:40:15.378Z,2.20
2018-05-08T10:42:43.027Z,2.70
2018-05-08T10:45:10.504Z,2.60
2018-05-08T10:47:38.093Z,2.60
2018-05-08T10:50:05.648Z,2.63
2018-05-08T10:52:33.213Z,2.03
2018-05-08T10:55:00.793Z,2.10
2018-05-08T10:57:28.353Z,2.10
2018-05-08T10:59:57.431Z,2.17
2018-05-08T11:02:24.993Z,2.00
2018-05-08T11:04:52.585Z,2.15
2018-05-08T11:07:21.036Z,2.05
2018-05-08T11:09:48.668Z,2.08
2018-05-08T11:12:16.244Z,2.00
2018-05-08T11:14:43.793Z,2.13
2018-05-08T11:17:11.632Z,2.00
2018-05-08T11:19:39.189Z,2.30
2018-05-08T11:22:06.773Z,2.20
2018-05-08T11:24:34.355Z,1.83
2018-05-08T11:27:01.985Z,1.83
2018-05-08T11:29:29.600Z,2.10
2018-05-08T11:31:57.168Z,1.90
2018-05-08T11:34:25.683Z,1.70
2018-05-08T11:36:53.243Z,1.80
2018-05-08T11:39:20.824Z,2.20
2018-05-08T11:41:49.145Z,2.20
2018-05-08T11:44:16.712Z,2.03
2018-05-08T11:46:45.056Z,2.10
2018-05-08T11:49:12.612Z,1.80
2018-05-08T11:51:40.254Z,2.20
2018-05-08T11:54:07.756Z,1.95
2018-05-08T11:56:35.309Z,2.00
2018-05-08T11:59:02.886Z,2.25
2018-05-08T12:01:30.448Z,2.10
2018-05-08T12:03:59.711Z,2.00
2018-05-08T12:06:27.319Z,2.00
2018-05-08T12:08:55.648Z,1.95
2018-05-08T12:11:23.204Z,2.03
2018-05-08T12:13:50.792Z,2.20
2018-05-08T12:16:18.452Z,2.30
2018-05-08T12:18:46.036Z,2.40
2018-05-08T12:21:14.406Z,2.00
2018-05-08T12:23:41.981Z,2.10
2018-05-08T12:26:10.312Z,2.40
2018-05-08T12:28:37.899Z,2.20
2018-05-08T12:31:05.480Z,2.08
2018-05-08T12:33:33.788Z,2.35
2018-05-08T12:36:01.357Z,1.92
2018-05-08T12:38:29.009Z,1.95
2018-05-08T12:40:56.567Z,2.33
2018-05-08T12:43:24.118Z,2.08
2018-05-08T12:45:51.733Z,2.03
2018-05-08T12:48:19.437Z,2.12
2018-05-08T12:50:46.970Z,1.90
2018-05-08T12:53:14.539Z,1.85
2018-05-08T12:55:42.876Z,1.80
2018-05-08T12:58:10.497Z,2.25
2018-05-08T13:00:38.865Z,2.20
2018-05-08T13:03:07.276Z,2.10
2018-05-08T13:05:34.844Z,1.90
2018-05-08T13:08:02.503Z,1.87
2018-05-08T13:10:30.071Z,1.98
2018-05-08T13:12:57.687Z,1.90
2018-05-08T13:15:26.010Z,1.98
2018-05-08T13:17:53.620Z,2.00
2018-05-08T13:20:21.973Z,1.85
2018-05-08T13:22:49.565Z,2.03
2018-05-08T13:25:17.884Z,1.90
2018-05-08T13:27:45.553Z,2.12
2018-05-08T13:30:13.113Z,1.73
2018-05-08T13:32:40.687Z,1.90
2018-05-08T13:35:08.249Z,1.90
2018-05-08T13:37:35.877Z,1.90
2018-05-08T13:40:03.434Z,1.92
2018-05-08T13:42:31.032Z,1.87
2018-05-08T13:44:58.600Z,2.00
2018-05-08T13:47:27.045Z,1.70
2018-05-08T13:49:54.623Z,2.47
2018-05-08T13:52:22.199Z,1.60
2018-05-08T13:54:49.782Z,2.10
2018-05-08T13:57:18.089Z,2.10
2018-05-08T13:59:45.683Z,1.60
2018-05-08T14:02:13.235Z,2.20
2018-05-08T14:04:40.839Z,1.90
2018-05-08T14:07:08.496Z,1.58
2018-05-08T14:09:36.079Z,2.03
2018-05-08T14:12:04.396Z,1.62
2018-05-08T14:14:32.080Z,1.52
2018-05-08T14:17:01.157Z,1.80
2018-05-08T14:19:28.797Z,1.90
2018-05-08T14:21:56.384Z,1.87
2018-05-08T14:24:23.933Z,1.67
2018-05-08T14:26:51.510Z,5.70
2018-05-08T14:29:19.139Z,1.92
2018-05-08T14:31:46.777Z,2.35
2018-05-08T14:34:14.388Z,2.10
2018-05-08T14:36:42.122Z,1.80
2018-05-08T14:39:09.681Z,2.00
2018-05-08T14:41:37.299Z,1.70
2018-05-08T14:44:04.878Z,1.87
2018-05-08T14:46:33.296Z,2.67
2018-05-08T14:49:00.868Z,2.72
2018-05-08T14:51:28.471Z,2.65
2018-05-08T14:53:56.082Z,1.87
2018-05-08T14:56:23.644Z,1.80
2018-05-08T14:58:51.224Z,2.08
2018-05-08T15:01:18.775Z,1.98
2018-05-08T15:03:46.335Z,2.22
2018-05-08T15:06:13.904Z,2.50
2018-05-08T15:08:41.585Z,1.95
2018-05-08T15:11:09.141Z,2.17
2018-05-08T15:13:36.716Z,1.70
2018-05-08T15:16:05.041Z,1.60
2018-05-08T15:18:32.624Z,1.55
2018-05-08T15:21:00.204Z,1.70
2018-05-08T15:23:27.787Z,2.22
2018-05-08T15:25:56.111Z,1.70
2018-05-08T15:28:23.671Z,2.10
2018-05-08T15:30:51.230Z,1.77
2018-05-08T15:33:18.839Z,1.50
2018-05-08T15:35:47.178Z,1.95
2018-05-08T15:38:14.772Z,1.50
2018-05-08T15:40:42.476Z,1.70
2018-05-08T15:43:10.043Z,1.87
2018-05-08T15:45:37.624Z,1.60
2018-05-08T15:48:05.195Z,2.15
2018-05-08T15:50:32.767Z,1.50
2018-05-08T15:53:00.321Z,3.33
2018-05-08T15:55:27.885Z,4.70
2018-05-08T15:57:55.440Z,2.45
2018-05-08T16:00:23.022Z,2.20
2018-05-08T16:02:51.352Z,2.05
2018-05-08T16:05:18.949Z,3.40
2018-05-08T16:07:46.505Z,6.40
2018-05-08T16:10:14.136Z,6.68
2018-05-08T16:12:41.708Z,5.80
2018-05-08T16:15:09.279Z,5.22
2018-05-08T16:17:36.864Z,2.83
2018-05-08T16:20:05.244Z,2.95
2018-05-08T16:22:33.620Z,1.90
2018-05-08T16:25:01.948Z,2.00
2018-05-08T16:27:29.572Z,2.10
2018-05-08T16:29:57.101Z,1.92
2018-05-08T16:32:24.671Z,2.08
2018-05-08T16:34:52.999Z,2.00
2018-05-08T16:37:20.588Z,2.35
2018-05-08T16:39:48.140Z,1.90
2018-05-08T16:42:15.706Z,2.30
2018-05-08T16:44:43.277Z,2.17
2018-05-08T16:47:10.838Z,2.15
2018-05-08T16:49:38.415Z,2.17
2018-05-08T16:52:06.123Z,1.70
2018-05-08T16:54:33.716Z,1.92
2018-05-08T16:57:01.287Z,2.20
2018-05-08T16:59:28.881Z,1.80
2018-05-08T17:01:56.454Z,1.87
2018-05-08T17:04:24.019Z,1.80
2018-05-08T17:06:51.579Z,1.83
2018-05-08T17:09:19.168Z,2.20
2018-05-08T17:11:46.747Z,1.92
2018-05-08T17:14:14.332Z,2.00
2018-05-08T17:16:42.654Z,1.98
2018-05-08T17:19:10.280Z,2.22
2018-05-08T17:21:38.656Z,1.80
2018-05-08T17:24:06.262Z,1.70
2018-05-08T17:26:33.832Z,1.87
2018-05-08T17:29:01.383Z,1.90
2018-05-08T17:31:28.961Z,1.80
2018-05-08T17:33:56.513Z,1.93
2018-05-08T17:36:24.089Z,2.15
2018-05-08T17:38:51.664Z,1.92
2018-05-08T17:41:20.011Z,2.30
2018-05-08T17:43:47.575Z,2.17
2018-05-08T17:46:15.183Z,2.10
2018-05-08T17:48:42.744Z,1.90
2018-05-08T17:51:10.361Z,2.15
2018-05-08T17:53:38.027Z,2.30
2018-05-08T17:56:05.652Z,2.10
2018-05-08T17:58:33.262Z,3.30
2018-05-08T18:01:00.838Z,2.40
2018-05-08T18:03:29.273Z,2.30
2018-05-08T18:05:56.825Z,2.40
2018-05-08T18:08:24.386Z,1.90
2018-05-08T18:10:51.937Z,2.33
2018-05-08T18:13:19.536Z,2.27
2018-05-08T18:15:47.127Z,2.10
2018-05-08T18:18:14.698Z,2.37
2018-05-08T18:20:42.297Z,3.17
2018-05-08T18:23:09.941Z,3.40
2018-05-08T18:25:37.534Z,3.50
2018-05-08T18:28:05.076Z,3.70
2018-05-08T18:30:32.689Z,3.10
2018-05-08T18:33:01.041Z,3.00
2018-05-08T18:35:28.596Z,3.00
2018-05-08T18:37:56.210Z,3.47
2018-05-08T18:40:23.759Z,3.07
2018-05-08T18:42:51.321Z,2.60
2018-05-08T18:45:18.887Z,2.80
2018-05-08T18:47:46.463Z,2.40
2018-05-08T18:50:14.057Z,2.73
2018-05-08T18:52:41.609Z,2.80
2018-05-08T18:55:09.315Z,2.90
2018-05-08T18:57:38.284Z,2.93
2018-05-08T19:00:11.388Z,3.20
2018-05-08T19:02:39.704Z,3.30
2018-05-08T19:05:07.300Z,2.97
2018-05-08T19:07:34.875Z,2.90
2018-05-08T19:10:02.476Z,2.93
2018-05-08T19:12:30.037Z,2.50
2018-05-08T19:15:03.424Z,2.70
2018-05-08T19:17:31.040Z,3.00
2018-05-08T19:20:04.153Z,2.83
2018-05-08T19:22:32.506Z,2.80
2018-05-08T19:25:00.076Z,2.97
2018-05-08T19:27:27.685Z,3.07
2018-05-08T19:30:00.982Z,2.80
2018-05-08T19:32:28.578Z,2.80
2018-05-08T19:35:01.761Z,2.70
2018-05-08T19:37:34.907Z,3.30
2018-05-08T19:40:02.461Z,3.07
2018-05-08T19:42:30.835Z,3.13
2018-05-08T19:44:59.182Z,3.23
2018-05-08T19:47:27.666Z,3.27
2018-05-08T19:49:55.244Z,3.13
2018-05-08T19:52:22.854Z,3.10
2018-05-08T19:54:50.411Z,3.50
2018-05-08T19:57:18.172Z,3.07
2018-05-08T19:59:45.729Z,2.73
2018-05-08T20:02:13.318Z,2.80
2018-05-08T20:04:40.879Z,3.10
2018-05-08T20:07:08.456Z,3.17
2018-05-08T20:09:36.015Z,2.87
2018-05-08T20:12:03.586Z,3.10
2018-05-08T20:14:31.157Z,3.43
2018-05-08T20:16:59.537Z,3.00
2018-05-08T20:19:27.904Z,2.97
2018-05-08T20:21:56.260Z,3.20
2018-05-08T20:24:23.839Z,7.17
2018-05-08T20:26:51.456Z,9.63
2018-05-08T20:29:19.027Z,3.37
2018-05-08T20:31:46.585Z,2.90
2018-05-08T20:34:14.176Z,3.70
2018-05-08T20:36:41.777Z,3.60
2018-05-08T20:39:09.332Z,3.50
2018-05-08T20:41:37.009Z,3.90
2018-05-08T20:44:04.599Z,4.60
2018-05-08T20:46:32.259Z,4.97
2018-05-08T20:48:59.854Z,4.43
2018-05-08T20:51:27.412Z,4.10
2018-05-08T20:53:55.765Z,3.30
2018-05-08T20:56:23.335Z,4.10
2018-05-08T20:58:50.954Z,4.77
2018-05-08T21:01:18.744Z,5.73
2018-05-08T21:03:46.228Z,4.40
2018-05-08T21:06:13.810Z,4.87
2018-05-08T21:08:42.149Z,5.13
2018-05-08T21:11:09.724Z,4.90
2018-05-08T21:13:37.296Z,4.87
2018-05-08T21:16:05.631Z,3.83
2018-05-08T21:18:33.215Z,4.20
2018-05-08T21:21:00.856Z,4.40
2018-05-08T21:23:28.571Z,4.47
2018-05-08T21:25:56.159Z,4.30
2018-05-08T21:28:29.307Z,4.10
2018-05-08T21:31:02.504Z,4.10
2018-05-08T21:33:30.069Z,4.13
2018-05-08T21:35:57.635Z,3.60
2018-05-08T21:38:25.972Z,3.17
2018-05-08T21:40:53.533Z,3.57
2018-05-08T21:43:21.159Z,3.60
2018-05-08T21:45:48.700Z,3.20
2018-05-08T21:48:16.292Z,3.10
2018-05-08T21:50:43.832Z,3.07
2018-05-08T21:53:11.413Z,3.40
2018-05-08T21:55:39.162Z,3.43
2018-05-08T21:58:06.815Z,3.17
2018-05-08T22:00:34.385Z,2.97
2018-05-08T22:03:01.978Z,3.00
2018-05-08T22:05:29.508Z,3.07
2018-05-08T22:07:57.076Z,3.27
2018-05-08T22:10:24.654Z,3.30
2018-05-08T22:12:52.253Z,3.20
2018-05-08T22:15:20.576Z,3.30
2018-05-08T22:17:48.125Z,3.00
2018-05-08T22:20:15.764Z,2.50
2018-05-08T22:22:43.275Z,3.00
2018-05-08T22:25:10.845Z,2.57
2018-05-08T22:27:38.428Z,2.70
2018-05-08T22:30:06.772Z,2.60
2018-05-08T22:32:34.368Z,2.33
2018-05-08T22:35:02.697Z,2.87
2018-05-08T22:37:30.273Z,2.60
2018-05-08T22:39:57.864Z,2.50
2018-05-08T22:42:25.431Z,2.80
2018-05-08T22:44:53.766Z,2.40
2018-05-08T22:47:21.316Z,2.73
2018-05-08T22:49:48.865Z,2.70
2018-05-08T22:52:16.480Z,2.73
2018-05-08T22:54:44.052Z,3.00
2018-05-08T22:57:12.412Z,2.60
2018-05-08T22:59:41.488Z,2.83
2018-05-08T23:02:09.081Z,2.63
2018-05-08T23:04:36.621Z,2.50
2018-05-08T23:07:04.181Z,2.90
2018-05-08T23:09:31.769Z,3.00
2018-05-08T23:12:00.101Z,3.00
2018-05-08T23:14:27.672Z,2.80
2018-05-08T23:16:55.226Z,3.10
2018-05-08T23:19:22.824Z,3.10
2018-05-08T23:21:51.145Z,2.97
2018-05-08T23:24:18.746Z,3.10
2018-05-08T23:26:47.813Z,2.90
2018-05-08T23:29:15.387Z,2.70
2018-05-08T23:31:42.956Z,2.90
2018-05-08T23:34:10.520Z,3.00
2018-05-08T23:36:38.081Z,2.90
2018-05-08T23:39:05.735Z,3.00
2018-05-08T23:41:33.298Z,2.80
2018-05-08T23:44:00.885Z,2.90
2018-05-08T23:46:29.390Z,2.90
2018-05-08T23:48:57.707Z,2.73
2018-05-08T23:51:25.251Z,2.90
2018-05-08T23:53:52.864Z,2.53
2018-05-08T23:56:21.196Z,2.93
2018-05-08T23:58:48.747Z,2.60
